Saipan, MP

8:14 PM ChST on August 22, 2014 (GMT +1000)
Red Cross-Airport | Change Station
CLOSE
Current Station
Personal Weather Station
Location: Saipan, MP
Elevation: 215 ft
Nearby Weather Stations

Elev 215 ft 15.13 °N, 145.72 °E | Updated 3 minutes ago

Clear
Clear
82.0 °F
Feels Like 93 °F
N
1.0
Wind Variable Wind from NE
Gusts 3.0 mph

Today
High -- | Low -- °F
--% Chance of Precip.
Yesterday
High -- | Low -- °F
Precip. -- in
6:03 AM 6:36 PM
Waning Crescent, 9% visible
Pressure 29.92 in
Visibility 10.0 miles
Clouds Clear
Heat Index 93 °F
Dew Point 80 °F
Humidity 95%
Rainfall -999.00 in
Snow Depth Not available.
UV 0 out of 12
Pollen Not available.
Air Quality Not available.
Flu Activity Not available.
METAR PGSN 220954Z 11003KT 10SM CLR 28/24 A2985 RMK AO2 SLP130 T02780244

More Conditions Fewer Conditions

Pressure 29.92 in
Visibility 10.0 miles
Clouds Clear
Heat Index 93 °F
Dew Point 80 °F
Humidity 95%
Rainfall -999.00 in
Snow Depth Not available.
UV 0 out of 12
Pollen Not available.
Air Quality Not available.
Flu Activity Not available.
METAR PGSN 220954Z 11003KT 10SM CLR 28/24 A2985 RMK AO2 SLP130 T02780244

More Conditions Fewer Conditions

10-Day Weather Forecast

Almanac

Astronomy

Aug. 22, 2014 Rise Set
Actual Time 6:03 AM ChST 6:36 PM ChST
Civil Twilight 5:41 AM ChST 6:58 PM ChST
Nautical Twilight 5:15 AM ChST 7:24 PM ChST
Astronomical Twilight 4:49 AM ChST 7:50 PM ChST
Moon 3:05 AM ChST 4:07 PM ChST
Length of Visible Light 13h 17m
Length of Day
12h 33m
Tomorrow will be 0m 47s shorter.
Waning Crescent, 9% of the Moon is Illuminated
Today
Waning Crescent
Aug 25
New
Sep 2
First Quarter
Sep 8
Full
Sep 15
Last Quarter

Community

WunderPhotos

Upload Photos

1,746,147 photos uploaded!

Nearby

Snow Depth

Station Depth Elevation
No new snow has been reported.

Earthquake Activity

City Distance Mag. Time & Date
No recent earthquake activity has been reported nearby.
Minimum magnitude displayed is 2.5.

Coastal Water Temperatures

Place Temperature
No Stations Reporting

Nearby Weather Stations